createdAt,value
2023-01-30T00:01:17.362Z,71.87
2023-01-30T00:06:20.281Z,71.40
2023-01-30T00:11:22.556Z,71.17
2023-01-30T00:16:24.883Z,71.58
2023-01-30T00:21:27.207Z,72.43
2023-01-30T00:26:29.492Z,71.90
2023-01-30T00:31:31.749Z,72.14
2023-01-30T00:36:33.983Z,71.83
2023-01-30T00:41:59.244Z,72.33
2023-01-30T00:47:09.033Z,73.01
2023-01-30T00:52:11.338Z,73.25
2023-01-30T00:57:14.865Z,72.72
2023-01-30T01:02:17.167Z,72.48
2023-01-30T01:07:20.701Z,72.56
2023-01-30T01:12:24.303Z,72.24
2023-01-30T01:17:26.523Z,72.70
2023-01-30T01:22:28.774Z,73.41
2023-01-30T01:27:31.159Z,73.24
2023-01-30T01:32:33.760Z,72.20
2023-01-30T01:37:37.131Z,72.78
2023-01-30T01:42:39.957Z,72.71
2023-01-30T01:48:23.661Z,72.40
2023-01-30T01:53:32.843Z,72.03
2023-01-30T01:58:46.139Z,71.74
2023-01-30T02:03:56.291Z,71.98
2023-01-30T02:09:06.301Z,73.04
2023-01-30T02:14:10.258Z,72.97
2023-01-30T02:19:34.210Z,73.45
2023-01-30T02:24:58.897Z,72.65
2023-01-30T02:30:44.505Z,72.54
2023-01-30T02:36:28.031Z,72.47
2023-01-30T02:41:59.345Z,72.80
2023-01-30T02:47:13.082Z,73.31
2023-01-30T02:52:18.373Z,72.87
2023-01-30T02:57:24.333Z,73.15
2023-01-30T03:02:44.762Z,73.22
2023-01-30T03:08:07.346Z,73.63
2023-01-30T03:13:21.090Z,73.05
2023-01-30T03:18:24.048Z,73.81
2023-01-30T03:23:27.249Z,74.31
2023-01-30T03:28:30.145Z,73.74
2023-01-30T03:33:32.394Z,74.68
2023-01-30T03:38:36.116Z,74.42
2023-01-30T03:43:38.209Z,74.53
2023-01-30T03:48:41.391Z,74.93
2023-01-30T03:53:46.866Z,74.41
2023-01-30T03:58:48.990Z,75.22
2023-01-30T04:03:54.954Z,74.92
2023-01-30T04:08:57.459Z,73.70
2023-01-30T04:14:28.752Z,74.00
2023-01-30T04:19:58.728Z,73.91
2023-01-30T04:25:02.587Z,73.96
2023-01-30T04:30:06.926Z,73.74
2023-01-30T04:35:09.606Z,74.03
2023-01-30T04:40:12.469Z,73.85
2023-01-30T04:45:14.850Z,74.55
2023-01-30T04:50:18.577Z,73.48
2023-01-30T04:55:20.690Z,73.65
2023-01-30T05:00:23.508Z,73.59
2023-01-30T05:05:30.889Z,74.11
2023-01-30T05:10:33.173Z,73.87
2023-01-30T05:15:35.602Z,74.21
2023-01-30T05:20:37.830Z,74.03
2023-01-30T05:25:39.913Z,73.81
2023-01-30T05:30:42.138Z,73.40
2023-01-30T05:35:51.425Z,73.39
2023-01-30T05:41:06.904Z,73.26
2023-01-30T05:46:12.437Z,73.37
2023-01-30T05:51:26.640Z,73.40
2023-01-30T05:56:30.537Z,73.40
2023-01-30T06:01:33.206Z,73.84
2023-01-30T06:06:35.587Z,73.47
2023-01-30T06:11:37.855Z,73.32
2023-01-30T06:16:40.074Z,73.38
2023-01-30T06:21:42.422Z,73.40
2023-01-30T06:26:44.727Z,73.98
2023-01-30T06:31:48.098Z,73.95
2023-01-30T06:36:50.393Z,74.44
2023-01-30T06:41:52.624Z,73.31
2023-01-30T06:46:54.852Z,73.70
2023-01-30T06:51:57.132Z,74.31
2023-01-30T06:56:59.374Z,74.23
2023-01-30T07:02:01.687Z,74.09
2023-01-30T07:07:04.653Z,73.77
2023-01-30T07:12:07.567Z,74.84
2023-01-30T07:17:09.851Z,73.74
2023-01-30T07:22:12.553Z,74.26
2023-01-30T07:27:14.841Z,74.42
2023-01-30T07:32:19.895Z,73.85
2023-01-30T07:37:22.054Z,73.60
2023-01-30T07:42:24.254Z,73.09
2023-01-30T07:47:27.960Z,73.30
2023-01-30T07:52:30.041Z,73.37
2023-01-30T07:57:32.154Z,73.64
2023-01-30T08:02:34.369Z,73.53
2023-01-30T08:07:37.105Z,73.34
2023-01-30T08:12:41.123Z,72.69
2023-01-30T08:17:43.372Z,73.29
2023-01-30T08:22:45.666Z,73.21
2023-01-30T08:27:47.951Z,72.52
2023-01-30T08:32:50.651Z,72.80
2023-01-30T08:37:52.888Z,73.27
2023-01-30T08:42:55.104Z,72.73
2023-01-30T08:48:03.261Z,72.35
2023-01-30T08:53:07.942Z,72.06
2023-01-30T08:58:10.065Z,72.00
2023-01-30T09:03:14.692Z,72.42
2023-01-30T09:08:18.140Z,72.08
2023-01-30T09:13:20.400Z,72.42
2023-01-30T09:18:24.757Z,72.90
2023-01-30T09:23:27.025Z,72.55
2023-01-30T09:28:29.815Z,72.67
2023-01-30T09:33:32.115Z,73.45
2023-01-30T09:38:34.393Z,72.52
2023-01-30T09:43:55.206Z,72.90
2023-01-30T09:49:20.021Z,72.25
2023-01-30T09:54:45.245Z,71.91
2023-01-30T10:00:32.430Z,71.50
2023-01-30T10:06:14.794Z,70.72
2023-01-30T10:11:41.628Z,69.76
2023-01-30T10:17:24.689Z,70.35
2023-01-30T10:22:45.309Z,70.62
2023-01-30T10:27:57.353Z,71.04
2023-01-30T10:33:06.256Z,71.45
2023-01-30T10:38:35.567Z,69.97
2023-01-30T10:43:48.135Z,71.19
2023-01-30T10:49:06.618Z,70.97
2023-01-30T10:54:21.431Z,70.39
2023-01-30T11:00:20.004Z,71.78
2023-01-30T11:05:27.600Z,70.58
2023-01-30T11:10:31.898Z,70.61
2023-01-30T11:15:47.231Z,68.95
2023-01-30T11:21:42.320Z,68.52
2023-01-30T11:26:48.367Z,69.07
2023-01-30T11:31:51.783Z,68.61
2023-01-30T11:36:54.179Z,68.89
2023-01-30T11:41:57.528Z,69.01
2023-01-30T11:47:08.810Z,69.23
2023-01-30T11:52:12.339Z,69.38
2023-01-30T11:57:18.075Z,69.30
2023-01-30T12:02:32.809Z,69.12
2023-01-30T12:07:37.806Z,69.00
2023-01-30T12:12:52.972Z,67.76
2023-01-30T12:18:27.395Z,67.92
2023-01-30T12:23:54.266Z,68.83
2023-01-30T12:29:21.523Z,68.80
2023-01-30T12:34:27.206Z,69.19
2023-01-30T12:40:09.509Z,69.72
2023-01-30T12:45:20.394Z,69.61
2023-01-30T12:51:01.589Z,71.21
2023-01-30T12:56:32.995Z,71.46
2023-01-30T13:02:02.870Z,71.16
2023-01-30T13:07:28.329Z,71.72
2023-01-30T13:13:06.513Z,71.58
2023-01-30T13:18:32.271Z,71.77
2023-01-30T13:24:04.740Z,70.84
2023-01-30T13:29:26.129Z,71.70
2023-01-30T13:34:43.487Z,71.84
2023-01-30T13:39:58.766Z,72.33
2023-01-30T13:45:01.938Z,72.78
2023-01-30T13:50:32.179Z,72.25
2023-01-30T13:55:52.424Z,72.33
2023-01-30T14:00:56.536Z,72.21
2023-01-30T14:06:00.811Z,72.73
2023-01-30T14:11:03.363Z,73.14
2023-01-30T14:16:07.108Z,73.05
2023-01-30T14:21:20.337Z,74.18
2023-01-30T14:26:50.744Z,73.92
2023-01-30T14:31:53.556Z,73.97
2023-01-30T14:36:55.871Z,74.29
2023-01-30T14:42:31.072Z,74.56
2023-01-30T14:47:46.448Z,74.37
2023-01-30T14:52:56.498Z,75.14
2023-01-30T14:58:02.391Z,74.55
2023-01-30T15:03:16.877Z,74.82
2023-01-30T15:08:23.022Z,74.50
2023-01-30T15:13:54.614Z,73.90
2023-01-30T15:19:49.037Z,74.66
2023-01-30T15:25:40.732Z,74.65
2023-01-30T15:31:07.754Z,74.41
2023-01-30T15:36:33.222Z,74.64
2023-01-30T15:41:42.917Z,75.19
2023-01-30T15:46:54.421Z,74.41
2023-01-30T15:52:03.680Z,75.42
2023-01-30T15:57:06.098Z,76.45
2023-01-30T16:02:31.831Z,75.32
2023-01-30T16:07:34.925Z,76.15
2023-01-30T16:12:40.980Z,76.00
2023-01-30T16:17:46.765Z,75.95
2023-01-30T16:22:49.186Z,76.49
2023-01-30T16:27:53.768Z,76.32
2023-01-30T16:32:57.317Z,76.54
2023-01-30T16:38:02.387Z,76.72
2023-01-30T16:43:23.422Z,76.36
2023-01-30T16:48:37.085Z,76.22
2023-01-30T16:53:52.502Z,77.09
2023-01-30T16:59:01.413Z,77.04
2023-01-30T17:04:07.157Z,76.63
2023-01-30T17:09:47.095Z,76.99
2023-01-30T17:14:49.358Z,77.07
2023-01-30T17:19:51.761Z,77.76
2023-01-30T17:25:01.632Z,76.58
2023-01-30T17:30:14.374Z,76.50
2023-01-30T17:35:18.029Z,76.40
2023-01-30T17:40:38.554Z,75.46
2023-01-30T17:45:41.116Z,76.31
2023-01-30T17:50:43.477Z,77.37
2023-01-30T17:55:45.656Z,77.00
2023-01-30T18:00:47.867Z,76.59
2023-01-30T18:05:50.195Z,77.54
2023-01-30T18:10:56.617Z,76.97
2023-01-30T18:16:03.713Z,77.01
2023-01-30T18:21:06.076Z,77.19
2023-01-30T18:26:12.503Z,76.97
2023-01-30T18:31:15.137Z,76.73
2023-01-30T18:36:19.855Z,77.63
2023-01-30T18:41:26.272Z,77.92
2023-01-30T18:46:29.859Z,77.94
2023-01-30T18:51:35.340Z,78.20
2023-01-30T18:56:38.668Z,77.92
2023-01-30T19:01:44.156Z,77.45
2023-01-30T19:06:46.410Z,78.79
2023-01-30T19:12:07.101Z,79.29
2023-01-30T19:17:09.372Z,79.14
2023-01-30T19:22:11.565Z,78.47
2023-01-30T19:27:14.041Z,79.17
2023-01-30T19:32:16.217Z,79.82
2023-01-30T19:37:18.454Z,79.84
2023-01-30T19:42:20.673Z,80.60
2023-01-30T19:47:23.453Z,79.20
2023-01-30T19:52:25.656Z,79.34
2023-01-30T19:57:27.821Z,80.60
2023-01-30T20:02:31.063Z,80.52
2023-01-30T20:07:37.334Z,79.82
2023-01-30T20:12:39.623Z,80.38
2023-01-30T20:17:41.803Z,79.54
2023-01-30T20:22:44.140Z,80.25
2023-01-30T20:27:46.369Z,81.08
2023-01-30T20:32:48.607Z,80.70
2023-01-30T20:37:50.798Z,79.29
2023-01-30T20:42:53.137Z,80.36
2023-01-30T20:47:55.381Z,79.55
2023-01-30T20:52:57.639Z,80.34
2023-01-30T20:57:59.909Z,81.00
2023-01-30T21:03:02.045Z,80.06
2023-01-30T21:08:04.894Z,79.67
2023-01-30T21:13:07.279Z,79.58
2023-01-30T21:18:09.495Z,79.33
2023-01-30T21:23:11.743Z,79.99
2023-01-30T21:28:13.993Z,79.48
2023-01-30T21:33:16.209Z,79.87
2023-01-30T21:38:36.935Z,79.33
2023-01-30T21:43:39.150Z,80.14
2023-01-30T21:48:43.882Z,79.46
2023-01-30T21:53:46.160Z,79.08
2023-01-30T21:58:48.684Z,78.27
2023-01-30T22:03:51.048Z,78.45
2023-01-30T22:08:58.744Z,79.12
2023-01-30T22:14:01.042Z,79.53
2023-01-30T22:19:05.364Z,78.11
2023-01-30T22:24:09.918Z,78.35
2023-01-30T22:29:12.302Z,78.45
2023-01-30T22:34:14.612Z,77.77
2023-01-30T22:39:16.741Z,76.75
2023-01-30T22:44:19.019Z,77.40
2023-01-30T22:49:21.354Z,76.90
2023-01-30T22:54:25.050Z,77.53
2023-01-30T22:59:27.405Z,77.47
2023-01-30T23:04:29.818Z,76.74
2023-01-30T23:09:32.134Z,77.60
2023-01-30T23:14:34.487Z,77.66
2023-01-30T23:19:36.773Z,77.36
2023-01-30T23:24:39.139Z,78.08
2023-01-30T23:29:41.373Z,76.52
2023-01-30T23:34:43.606Z,78.15
2023-01-30T23:39:45.974Z,78.19
2023-01-30T23:44:48.220Z,77.80
2023-01-30T23:49:50.482Z,78.37
2023-01-30T23:54:52.745Z,77.78
2023-01-30T23:59:54.961Z,77.01
